Time;durP1;ratioP1;P1;durP2;ratioP2;P2;SDS_P1;SDS_P2;PMS_P1;PMS_P2;Temp;Humidity;BMP_temperature;BMP_pressure;BME280_temperature;BME280_humidity;BME280_pressure;Samples;Min_cycle;Max_cycle;Signal;HPM_P1;HPM_P2
2022/11/12 00:00:28;;;;;;;15.50;9.60;;;8.30;99.90;;;;;;4999010;28;20052;-75
2022/11/12 00:02:53;;;;;;;13.33;9.10;;;8.20;99.90;;;;;;5014968;28;20466;-74
2022/11/12 00:05:19;;;;;;;13.17;8.77;;;8.20;99.90;;;;;;4983512;28;20045;-74
2022/11/12 00:07:45;;;;;;;12.53;9.00;;;8.20;99.90;;;;;;5014636;28;20038;-74
2022/11/12 00:10:11;;;;;;;12.67;8.80;;;8.20;99.90;;;;;;5014819;28;20060;-74
2022/11/12 00:12:36;;;;;;;13.10;8.33;;;8.10;99.90;;;;;;4982549;28;20053;-74
2022/11/12 00:15:03;;;;;;;10.93;8.40;;;8.10;99.90;;;;;;5014971;28;20485;-74
2022/11/12 00:17:28;;;;;;;12.03;8.90;;;8.10;99.90;;;;;;5014637;28;20493;-74
2022/11/12 00:19:54;;;;;;;12.33;8.80;;;8.10;99.90;;;;;;5016404;28;20287;-74
2022/11/12 00:22:20;;;;;;;15.30;9.37;;;8.10;99.90;;;;;;5014558;28;20053;-74
2022/11/12 00:24:46;;;;;;;15.13;9.67;;;8.10;99.90;;;;;;4982332;28;20068;-74
2022/11/12 00:27:12;;;;;;;11.83;8.73;;;8.10;99.90;;;;;;5016598;28;20803;-74
2022/11/12 00:29:38;;;;;;;15.60;9.10;;;8.10;99.90;;;;;;5014932;28;20152;-74
2022/11/12 00:32:08;;;;;;;14.20;8.63;;;8.10;99.90;;;;;;5015648;28;20822;-74
2022/11/12 00:34:34;;;;;;;13.73;9.43;;;8.10;99.90;;;;;;4982067;28;20089;-74
2022/11/12 00:37:00;;;;;;;14.77;9.30;;;8.00;99.90;;;;;;5014558;28;20661;-74
2022/11/12 00:39:27;;;;;;;12.47;9.10;;;8.00;99.90;;;;;;4998221;28;20795;-74
2022/11/12 00:41:54;;;;;;;12.70;9.00;;;8.00;99.90;;;;;;5014130;28;20288;-74
2022/11/12 00:44:20;;;;;;;16.37;9.90;;;8.00;99.90;;;;;;5015345;28;20324;-74
2022/11/12 00:46:45;;;;;;;12.40;8.90;;;8.00;99.90;;;;;;5014339;28;20316;-74
2022/11/12 00:49:11;;;;;;;14.53;9.37;;;7.90;99.90;;;;;;5014130;28;20050;-74
2022/11/12 00:51:37;;;;;;;13.53;9.10;;;7.90;99.90;;;;;;5015790;28;20046;-74
2022/11/12 00:54:04;;;;;;;12.13;9.03;;;7.90;99.90;;;;;;5014225;28;20108;-74
2022/11/12 00:56:29;;;;;;;12.63;8.67;;;7.90;99.90;;;;;;5015111;28;20276;-74
2022/11/12 00:58:56;;;;;;;14.13;8.97;;;7.90;99.90;;;;;;5013667;28;20323;-74
2022/11/12 01:01:23;;;;;;;15.87;8.93;;;7.90;99.90;;;;;;5015074;28;20046;-74
2022/11/12 01:03:48;;;;;;;14.60;9.37;;;7.90;99.90;;;;;;5014995;28;20388;-74
2022/11/12 01:06:19;;;;;;;13.43;8.50;;;7.90;99.90;;;;;;5014111;28;20367;-74
2022/11/12 01:08:47;;;;;;;14.30;9.90;;;7.90;99.90;;;;;;5015760;28;20042;-74
2022/11/12 01:11:21;;;;;;;13.63;9.63;;;7.80;99.90;;;;;;5014163;28;20296;-74
2022/11/12 01:13:56;;;;;;;13.65;8.18;;;7.80;99.90;;;;;;5014844;28;20280;-74
2022/11/12 01:16:24;;;;;;;13.23;8.90;;;7.80;99.90;;;;;;5014862;28;20045;-74
2022/11/12 01:18:58;;;;;;;14.03;9.63;;;7.90;99.90;;;;;;5014631;28;20293;-74
2022/11/12 01:21:28;;;;;;;12.97;9.00;;;7.80;99.90;;;;;;5030237;28;20288;-74
2022/11/12 01:23:57;;;;;;;16.33;9.27;;;7.80;99.90;;;;;;5014724;28;20277;-74
2022/11/12 01:26:23;;;;;;;14.23;10.07;;;7.80;99.90;;;;;;5014686;28;20672;-74
2022/11/12 01:28:49;;;;;;;13.03;9.30;;;7.80;99.90;;;;;;5013555;28;20299;-75
2022/11/12 01:31:19;;;;;;;14.90;9.50;;;7.80;99.90;;;;;;5013553;28;20343;-74
2022/11/12 01:33:47;;;;;;;16.17;10.63;;;7.80;99.90;;;;;;5013293;28;20364;-74
2022/11/12 01:36:15;;;;;;;13.90;10.07;;;7.80;99.90;;;;;;5014464;28;20281;-75
2022/11/12 01:38:43;;;;;;;14.00;9.63;;;7.70;99.90;;;;;;5014257;28;20383;-75
2022/11/12 01:41:14;;;;;;;14.60;10.27;;;7.70;99.90;;;;;;5014668;28;20731;-75
2022/11/12 01:43:40;;;;;;;15.23;10.57;;;7.70;99.90;;;;;;5014108;28;20346;-75
2022/11/12 01:46:27;;;;;;;15.10;10.60;;;7.70;99.90;;;;;;5013295;28;20297;-75
2022/11/12 01:49:01;;;;;;;17.13;11.50;;;7.80;99.90;;;;;;4996981;28;20050;-75
2022/11/12 01:51:47;;;;;;;23.37;15.00;;;7.70;99.90;;;;;;5015349;28;20411;-75
2022/11/12 01:54:17;;;;;;;20.60;13.23;;;7.70;99.90;;;;;;5013301;28;20361;-75
2022/11/12 01:56:43;;;;;;;18.00;11.13;;;7.70;99.90;;;;;;5014166;28;20288;-75
2022/11/12 01:59:27;;;;;;;14.43;10.63;;;7.70;99.90;;;;;;5013010;28;20305;-75
2022/11/12 02:01:52;;;;;;;15.57;10.63;;;7.70;99.90;;;;;;5014901;28;20277;-76
2022/11/12 02:04:19;;;;;;;13.93;10.07;;;7.70;99.90;;;;;;5012845;28;20338;-75
2022/11/12 02:06:47;;;;;;;16.83;11.20;;;7.60;99.90;;;;;;4997442;28;20045;-76
2022/11/12 02:09:13;;;;;;;15.43;10.73;;;7.60;99.90;;;;;;5014011;28;20764;-75
2022/11/12 02:11:39;;;;;;;16.47;11.17;;;7.60;99.90;;;;;;5014222;28;20285;-76
2022/11/12 02:14:05;;;;;;;13.47;9.87;;;7.60;99.90;;;;;;5012950;28;20791;-75
2022/11/12 02:16:45;;;;;;;15.17;10.53;;;7.60;99.90;;;;;;5014514;28;20054;-75
2022/11/12 02:19:13;;;;;;;15.83;9.47;;;7.60;99.90;;;;;;5013670;28;20331;-75
2022/11/12 02:21:39;;;;;;;18.00;11.07;;;7.60;99.90;;;;;;5013853;28;20283;-75
2022/11/12 02:24:10;;;;;;;16.50;11.30;;;7.60;99.90;;;;;;5013863;28;20273;-75
2022/11/12 02:26:50;;;;;;;15.20;10.43;;;7.60;99.90;;;;;;5012833;28;20300;-75
2022/11/12 02:29:16;;;;;;;15.03;11.40;;;7.50;99.90;;;;;;5013578;28;20296;-75
2022/11/12 02:31:41;;;;;;;15.47;11.40;;;7.50;99.90;;;;;;5012578;28;20364;-75
2022/11/12 02:34:07;;;;;;;15.13;11.13;;;7.50;99.90;;;;;;5013046;28;20128;-75
2022/11/12 02:36:33;;;;;;;15.73;10.77;;;7.60;99.90;;;;;;5013465;28;20050;-75
2022/11/12 02:38:58;;;;;;;17.93;12.03;;;7.50;99.90;;;;;;5013621;28;20050;-75
2022/11/12 02:41:24;;;;;;;16.00;11.20;;;7.50;99.90;;;;;;5013678;28;20482;-75
2022/11/12 02:43:50;;;;;;;17.87;11.43;;;7.60;99.90;;;;;;5013672;28;20057;-75
2022/11/12 02:46:15;;;;;;;16.17;11.50;;;7.50;99.90;;;;;;5012622;28;20042;-75
2022/11/12 02:48:41;;;;;;;16.57;11.37;;;7.50;99.90;;;;;;5013606;28;20121;-75
2022/11/12 02:51:07;;;;;;;14.43;12.03;;;7.60;99.90;;;;;;5013344;28;20050;-75
2022/11/12 02:53:33;;;;;;;16.20;12.47;;;7.60;99.90;;;;;;5013358;28;20046;-75
2022/11/12 02:56:00;;;;;;;16.90;12.20;;;7.60;99.90;;;;;;5013445;28;20625;-75
2022/11/12 02:58:26;;;;;;;17.47;11.87;;;7.60;99.90;;;;;;5014061;28;20378;-75
2022/11/12 03:00:52;;;;;;;16.47;10.90;;;7.60;99.90;;;;;;5013476;28;20281;-76
2022/11/12 03:03:18;;;;;;;13.63;10.80;;;7.60;99.90;;;;;;5013494;28;20291;-75
2022/11/12 03:05:44;;;;;;;18.33;11.73;;;7.60;99.90;;;;;;5013460;28;20050;-75
2022/11/12 03:08:10;;;;;;;16.07;11.73;;;7.60;99.90;;;;;;5012506;28;20054;-75
2022/11/12 03:10:38;;;;;;;18.30;13.03;;;7.60;99.90;;;;;;5012470;28;20359;-75
2022/11/12 03:13:04;;;;;;;16.07;11.27;;;7.50;99.90;;;;;;5012413;28;20401;-75
2022/11/12 03:15:30;;;;;;;16.57;12.53;;;7.50;99.90;;;;;;5012418;28;20289;-75
2022/11/12 03:17:59;;;;;;;17.30;13.13;;;7.60;99.90;;;;;;5011883;28;20305;-75
2022/11/12 03:20:26;;;;;;;17.57;12.97;;;7.50;99.90;;;;;;5013681;28;20277;-75
2022/11/12 03:22:58;;;;;;;18.90;11.97;;;7.50;99.90;;;;;;5012271;28;20293;-76
2022/11/12 03:25:25;;;;;;;15.70;11.80;;;7.60;99.90;;;;;;5013166;28;20292;-75
2022/11/12 03:27:59;;;;;;;18.57;12.17;;;7.50;99.90;;;;;;5012306;28;20380;-75
2022/11/12 03:30:32;;;;;;;16.83;13.20;;;7.50;99.90;;;;;;5014462;28;20622;-75
2022/11/12 03:32:58;;;;;;;14.83;11.87;;;7.60;99.90;;;;;;5016681;28;20308;-76
2022/11/12 03:35:25;;;;;;;15.70;11.37;;;7.60;99.90;;;;;;5015700;28;20323;-76
2022/11/12 03:37:51;;;;;;;17.10;13.50;;;7.60;99.90;;;;;;5016317;28;20058;-79
2022/11/12 03:40:18;;;;;;;18.77;13.63;;;7.60;99.90;;;;;;5017186;28;20276;-75
2022/11/12 03:42:48;;;;;;;17.07;12.97;;;7.70;99.90;;;;;;5015589;28;20768;-75
2022/11/12 03:45:15;;;;;;;18.43;13.47;;;7.70;99.90;;;;;;5015272;28;20288;-75
2022/11/12 03:47:42;;;;;;;20.17;13.03;;;7.80;99.90;;;;;;5015187;28;20300;-76
2022/11/12 03:50:09;;;;;;;18.10;12.83;;;7.80;99.90;;;;;;5015444;28;20486;-76
2022/11/12 03:52:35;;;;;;;20.93;13.07;;;7.80;99.90;;;;;;5016389;28;20281;-75
2022/11/12 03:55:01;;;;;;;19.47;13.30;;;7.90;99.90;;;;;;4998941;28;20292;-75
2022/11/12 03:57:26;;;;;;;17.57;12.93;;;8.00;99.90;;;;;;5014917;28;20309;-75
2022/11/12 03:59:52;;;;;;;16.63;13.37;;;8.00;99.90;;;;;;5015033;28;20141;-75
2022/11/12 04:02:18;;;;;;;17.20;12.90;;;8.00;99.90;;;;;;5016744;28;20054;-75
2022/11/12 04:10:12;;;;;;;21.17;14.07;;;8.10;99.90;;;;;;5015377;28;20293;-75
2022/11/12 04:15:21;;;;;;;20.80;14.37;;;8.10;99.90;;;;;;5016263;28;20054;-76
2022/11/12 04:23:16;;;;;;;28.23;15.60;;;8.20;99.90;;;;;;5015625;28;20575;-76
2022/11/12 04:28:26;;;;;;;31.30;16.35;;;8.30;99.90;;;;;;5015810;28;20054;-76
2022/11/12 04:30:52;;;;;;;33.13;17.93;;;8.30;99.90;;;;;;5014408;28;20061;-76
2022/11/12 04:33:18;;;;;;;39.70;17.70;;;8.30;99.90;;;;;;5015626;28;20056;-76
2022/11/12 04:35:43;;;;;;;36.93;18.07;;;8.30;99.90;;;;;;5015294;28;20049;-76
2022/11/12 04:38:09;;;;;;;38.20;17.27;;;8.30;99.90;;;;;;5015698;28;20041;-76
2022/11/12 04:46:04;;;;;;;34.47;17.97;;;8.30;99.90;;;;;;5014704;28;20684;-76
2022/11/12 04:48:31;;;;;;;48.97;20.37;;;8.30;99.90;;;;;;5014139;28;20281;-75
2022/11/12 04:50:59;;;;;;;45.93;20.13;;;8.30;99.90;;;;;;4998096;28;20281;-75
2022/11/12 04:53:25;;;;;;;45.07;19.07;;;8.40;99.90;;;;;;5015280;28;20280;-76
2022/11/12 04:55:53;;;;;;;45.60;20.53;;;8.30;99.90;;;;;;5015741;28;20277;-75
2022/11/12 04:58:20;;;;;;;51.03;20.37;;;8.30;99.90;;;;;;5014580;28;20308;-76
2022/11/12 05:00:47;;;;;;;51.93;21.63;;;8.30;99.90;;;;;;5014818;28;20289;-76
2022/11/12 05:03:12;;;;;;;40.83;22.07;;;8.40;99.90;;;;;;5015036;28;20285;-76
2022/11/12 05:05:38;;;;;;;57.90;23.33;;;8.40;99.90;;;;;;5014066;28;20295;-76
2022/11/12 05:08:04;;;;;;;70.77;25.27;;;8.40;99.90;;;;;;5015491;28;20544;-76
2022/11/12 05:10:30;;;;;;;81.27;27.27;;;8.40;99.90;;;;;;5013724;28;20045;-75
2022/11/12 05:12:56;;;;;;;65.90;24.20;;;8.40;99.90;;;;;;5014942;28;20054;-75
2022/11/12 05:15:22;;;;;;;63.43;24.27;;;8.50;99.90;;;;;;5013815;28;20866;-76
2022/11/12 05:17:48;;;;;;;55.03;23.20;;;8.40;99.90;;;;;;5014519;28;20046;-75
2022/11/12 05:20:14;;;;;;;71.93;23.33;;;8.50;99.90;;;;;;5015573;28;20277;-75
2022/11/12 05:22:40;;;;;;;141.57;29.27;;;8.40;99.90;;;;;;5013739;28;20473;-75
2022/11/12 05:25:07;;;;;;;96.70;25.67;;;8.40;99.90;;;;;;5015167;28;20284;-76
2022/11/12 05:27:33;;;;;;;125.67;28.43;;;8.40;99.90;;;;;;5014661;28;20084;-75
2022/11/12 05:29:59;;;;;;;94.93;27.47;;;8.40;99.90;;;;;;4997032;28;20280;-76
2022/11/12 05:32:25;;;;;;;74.30;28.73;;;8.40;99.90;;;;;;5014530;28;20292;-75
2022/11/12 05:34:51;;;;;;;48.70;25.17;;;8.40;99.90;;;;;;5013854;28;20289;-75
2022/11/12 05:37:18;;;;;;;73.40;26.23;;;8.40;99.90;;;;;;5015132;28;20292;-75
2022/11/12 05:39:43;;;;;;;78.03;26.93;;;8.40;99.90;;;;;;5014477;28;20073;-75
2022/11/12 05:42:09;;;;;;;64.03;25.23;;;8.40;99.90;;;;;;5014398;28;20745;-75
2022/11/12 05:44:35;;;;;;;56.03;23.33;;;8.50;99.90;;;;;;5014369;28;20529;-75
2022/11/12 05:47:00;;;;;;;58.73;26.13;;;8.50;99.90;;;;;;5014029;28;20042;-75
2022/11/12 05:49:26;;;;;;;64.83;25.30;;;8.50;99.90;;;;;;5014091;28;20048;-75
2022/11/12 05:51:52;;;;;;;134.50;29.60;;;8.50;99.90;;;;;;5014183;28;20054;-75
2022/11/12 05:54:17;;;;;;;85.90;28.37;;;8.50;99.90;;;;;;5014138;28;20508;-76
2022/11/12 05:56:44;;;;;;;97.47;29.10;;;8.50;99.90;;;;;;5014186;28;20477;-76
2022/11/12 05:59:13;;;;;;;135.57;29.43;;;8.50;99.90;;;;;;5013576;28;20518;-76
2022/11/12 06:01:42;;;;;;;76.87;28.40;;;8.50;99.90;;;;;;5013991;28;20285;-75
2022/11/12 06:04:13;;;;;;;170.57;32.40;;;8.50;99.90;;;;;;5014010;28;20470;-78
2022/11/12 06:06:40;;;;;;;72.70;28.07;;;8.50;99.90;;;;;;5014049;28;20367;-75
2022/11/12 06:09:07;;;;;;;85.97;28.33;;;8.50;99.90;;;;;;5012844;28;20277;-75
2022/11/12 06:11:33;;;;;;;149.10;34.80;;;8.50;99.90;;;;;;5013936;28;20295;-75
2022/11/12 06:13:59;;;;;;;105.83;31.10;;;8.60;99.90;;;;;;4996428;28;20335;-75
2022/11/12 06:16:25;;;;;;;66.67;28.13;;;8.50;99.90;;;;;;4996893;28;20320;-75
2022/11/12 06:18:51;;;;;;;70.90;28.70;;;8.50;99.90;;;;;;5013851;28;20692;-75
2022/11/12 06:21:20;;;;;;;104.73;29.17;;;8.50;99.90;;;;;;5013920;28;20085;-75
2022/11/12 06:23:51;;;;;;;77.50;23.67;;;8.50;99.90;;;;;;5013917;28;20125;-75
2022/11/12 06:26:17;;;;;;;119.13;31.57;;;8.50;99.90;;;;;;5013758;28;20371;-75
2022/11/12 06:28:43;;;;;;;84.77;26.97;;;8.50;99.90;;;;;;4997319;28;20288;-75
2022/11/12 06:31:09;;;;;;;64.20;26.73;;;8.40;99.90;;;;;;4996243;28;20622;-75
2022/11/12 06:33:35;;;;;;;77.00;27.57;;;8.40;99.90;;;;;;5013762;28;20054;-76
2022/11/12 06:36:03;;;;;;;77.23;25.20;;;8.40;99.90;;;;;;5013529;28;20050;-75
2022/11/12 06:38:33;;;;;;;55.30;28.50;;;8.40;99.90;;;;;;5012827;28;20054;-75
2022/11/12 06:40:59;;;;;;;61.43;25.93;;;8.40;99.90;;;;;;5012991;28;20375;-75
2022/11/12 06:43:27;;;;;;;59.10;24.53;;;8.40;99.90;;;;;;5013660;28;20285;-75
2022/11/12 06:45:53;;;;;;;72.87;33.47;;;8.40;99.90;;;;;;5013692;28;20753;-75
2022/11/12 06:48:18;;;;;;;61.37;25.00;;;8.40;99.90;;;;;;5012955;28;20292;-75
2022/11/12 06:50:44;;;;;;;60.43;24.20;;;8.40;99.90;;;;;;5013471;28;20429;-75
2022/11/12 06:53:10;;;;;;;63.23;24.93;;;8.40;99.90;;;;;;5012649;28;20041;-76
2022/11/12 06:55:36;;;;;;;61.33;24.60;;;8.40;99.90;;;;;;5012466;28;20060;-75
2022/11/12 06:58:01;;;;;;;47.50;24.43;;;8.40;99.90;;;;;;5013112;28;20042;-75
2022/11/12 07:00:27;;;;;;;55.57;25.73;;;8.30;99.90;;;;;;5012895;28;20057;-75
2022/11/12 07:02:53;;;;;;;55.87;25.50;;;8.40;99.90;;;;;;5028811;28;20076;-75
2022/11/12 07:05:18;;;;;;;54.17;27.67;;;8.40;99.90;;;;;;5014857;28;20116;-76
2022/11/12 07:07:44;;;;;;;56.63;26.10;;;8.30;99.90;;;;;;5000823;28;20057;-75
2022/11/12 07:10:10;;;;;;;47.63;23.63;;;8.30;99.90;;;;;;5016321;28;20046;-75
2022/11/12 07:12:35;;;;;;;58.07;28.87;;;8.30;99.90;;;;;;5015988;28;20077;-76
2022/11/12 07:15:01;;;;;;;63.73;26.00;;;8.30;99.90;;;;;;5015688;28;20095;-75
2022/11/12 07:17:26;;;;;;;68.20;27.67;;;8.30;99.90;;;;;;5017206;28;20038;-76
2022/11/12 07:19:52;;;;;;;61.00;26.30;;;8.30;99.90;;;;;;5016860;28;20343;-75
2022/11/12 07:22:18;;;;;;;46.13;23.57;;;8.30;99.90;;;;;;5017239;28;20054;-77
2022/11/12 07:24:43;;;;;;;53.40;24.23;;;8.30;99.90;;;;;;5015829;28;20088;-76
2022/11/12 07:27:09;;;;;;;59.33;26.23;;;8.30;99.90;;;;;;5017743;28;20068;-75
2022/11/12 07:29:35;;;;;;;72.40;27.10;;;8.30;99.90;;;;;;5015590;28;20049;-76
2022/11/12 07:32:00;;;;;;;44.57;23.20;;;8.30;99.90;;;;;;5016899;28;20046;-75
2022/11/12 07:34:26;;;;;;;70.63;25.83;;;8.30;99.90;;;;;;5015626;28;20129;-76
2022/11/12 07:36:52;;;;;;;50.87;25.03;;;8.30;99.90;;;;;;5015828;28;20470;-76
2022/11/12 07:39:17;;;;;;;51.53;25.20;;;8.30;99.90;;;;;;5016602;28;20046;-76
2022/11/12 07:41:43;;;;;;;56.93;26.43;;;8.30;99.90;;;;;;5016475;28;20061;-76
2022/11/12 07:44:09;;;;;;;56.53;26.80;;;8.30;99.90;;;;;;5017182;28;20546;-76
2022/11/12 07:46:35;;;;;;;89.60;30.87;;;8.30;99.90;;;;;;4999186;28;20054;-76
2022/11/12 07:49:01;;;;;;;57.63;24.47;;;8.30;99.90;;;;;;5017118;28;20042;-75
2022/11/12 07:51:28;;;;;;;49.93;25.80;;;8.40;99.90;;;;;;4999550;28;20281;-76
2022/11/12 07:53:56;;;;;;;50.10;26.30;;;8.40;99.90;;;;;;5016449;28;20439;-76
2022/11/12 07:56:24;;;;;;;46.87;24.30;;;8.40;99.90;;;;;;5015250;28;20277;-78
2022/11/12 07:58:50;;;;;;;42.20;26.87;;;8.40;99.90;;;;;;4998796;28;20300;-76
2022/11/12 08:01:38;;;;;;;46.80;25.77;;;8.40;99.90;;;;;;5014952;28;20289;-76
2022/11/12 08:04:06;;;;;;;34.90;23.13;;;8.40;99.90;;;;;;5015320;28;20376;-76
2022/11/12 08:06:32;;;;;;;35.83;23.57;;;8.40;99.90;;;;;;5015392;28;20764;-76
2022/11/12 08:09:01;;;;;;;35.73;24.53;;;8.40;99.90;;;;;;5014901;28;20288;-76
2022/11/12 08:11:27;;;;;;;34.07;23.70;;;8.50;99.90;;;;;;5016373;28;20276;-76
2022/11/12 08:13:52;;;;;;;50.23;26.87;;;8.50;99.90;;;;;;5016014;28;20339;-76
2022/11/12 08:16:19;;;;;;;49.37;27.30;;;8.50;99.90;;;;;;5016371;28;20288;-76
2022/11/12 08:18:45;;;;;;;46.23;27.40;;;8.50;99.90;;;;;;5016672;28;20733;-76
2022/11/12 08:21:13;;;;;;;41.27;25.33;;;8.50;99.90;;;;;;5015906;28;20038;-76
2022/11/12 08:23:39;;;;;;;34.30;22.90;;;8.60;99.90;;;;;;5014883;28;20326;-76
2022/11/12 08:26:07;;;;;;;43.93;26.17;;;8.50;99.90;;;;;;5014743;28;20339;-76
2022/11/12 08:28:35;;;;;;;50.13;28.30;;;8.60;99.90;;;;;;5015762;28;20368;-76
2022/11/12 08:31:10;;;;;;;38.37;26.30;;;8.60;99.90;;;;;;5015415;28;20312;-76
2022/11/12 08:33:36;;;;;;;49.70;30.88;;;8.60;99.90;;;;;;5015701;28;20288;-76
2022/11/12 08:36:04;;;;;;;47.03;27.17;;;8.60;99.90;;;;;;5015655;28;20046;-76
2022/11/12 08:38:30;;;;;;;39.83;26.40;;;8.60;99.90;;;;;;5015975;28;20293;-76
2022/11/12 08:41:03;;;;;;;64.23;30.17;;;8.70;99.90;;;;;;5031105;28;20292;-76
2022/11/12 08:43:29;;;;;;;48.20;27.50;;;8.70;99.90;;;;;;5030907;28;20822;-77
2022/11/12 08:45:58;;;;;;;59.00;29.40;;;8.70;99.90;;;;;;5015949;28;20281;-76
2022/11/12 08:48:24;;;;;;;65.47;31.47;;;8.80;99.90;;;;;;5015458;28;20042;-76
2022/11/12 08:50:49;;;;;;;68.70;30.83;;;8.80;99.90;;;;;;5014401;28;20281;-76
2022/11/12 08:53:15;;;;;;;61.23;29.70;;;8.80;99.90;;;;;;5014133;28;20439;-75
2022/11/12 08:55:41;;;;;;;61.93;30.97;;;8.80;99.90;;;;;;5014875;28;20050;-76
2022/11/12 08:58:09;;;;;;;73.47;33.07;;;8.80;99.90;;;;;;5013987;28;20552;-75
2022/11/12 09:00:39;;;;;;;62.00;30.23;;;8.90;99.90;;;;;;5015347;28;20054;-76
2022/11/12 09:03:06;;;;;;;61.23;31.43;;;8.90;99.90;;;;;;5015112;28;20906;-76
2022/11/12 09:05:34;;;;;;;77.27;34.57;;;8.90;99.90;;;;;;5014643;28;20289;-75
2022/11/12 09:08:05;;;;;;;61.87;32.53;;;9.00;99.90;;;;;;5014869;28;20618;-79
2022/11/12 09:10:32;;;;;;;82.17;32.90;;;9.00;99.90;;;;;;5014268;28;20325;-78
2022/11/12 09:12:58;;;;;;;85.90;35.90;;;8.90;99.90;;;;;;5013624;28;20372;-77
2022/11/12 09:15:25;;;;;;;91.43;37.13;;;8.90;99.90;;;;;;5014901;28;20289;-77
2022/11/12 09:17:58;;;;;;;74.77;32.67;;;8.90;99.90;;;;;;5014768;28;20300;-78
2022/11/12 09:20:25;;;;;;;65.83;33.93;;;9.00;99.90;;;;;;5014759;28;20749;-78
2022/11/12 09:22:51;;;;;;;77.33;34.97;;;9.00;99.90;;;;;;5014698;28;20289;-78
2022/11/12 09:25:18;;;;;;;93.80;39.57;;;9.00;99.90;;;;;;5014736;28;20276;-78
2022/11/12 09:27:43;;;;;;;68.47;37.57;;;9.00;99.90;;;;;;5013724;28;20293;-77
2022/11/12 09:30:09;;;;;;;90.30;36.17;;;9.00;99.90;;;;;;5015448;28;20649;-77
2022/11/12 09:32:35;;;;;;;109.37;39.90;;;9.10;99.90;;;;;;5014565;28;20057;-79
2022/11/12 09:35:01;;;;;;;94.10;39.50;;;9.10;99.90;;;;;;5013320;28;20289;-77
2022/11/12 09:37:26;;;;;;;100.40;40.97;;;9.10;99.90;;;;;;5014510;28;20128;-78
2022/11/12 09:39:52;;;;;;;81.13;39.83;;;9.10;99.90;;;;;;4997161;28;20044;-79
2022/11/12 09:42:21;;;;;;;66.80;37.77;;;9.10;99.90;;;;;;5014502;28;20158;-78
2022/11/12 09:45:18;;;;;;;97.20;41.27;;;9.10;99.90;;;;;;5014377;28;20042;-79
2022/11/12 09:47:48;;;;;;;92.80;40.17;;;9.20;99.90;;;;;;5014937;28;20344;-80
2022/11/12 09:50:20;;;;;;;81.37;38.97;;;9.20;99.90;;;;;;5014258;28;20289;-77
2022/11/12 09:52:49;;;;;;;99.83;40.73;;;9.20;99.90;;;;;;5013306;28;20296;-80
2022/11/12 09:55:20;;;;;;;83.67;39.53;;;9.20;99.90;;;;;;5014111;28;20295;-79
2022/11/12 09:57:46;;;;;;;89.20;42.40;;;9.20;99.90;;;;;;5013399;28;20308;-79
2022/11/12 10:00:18;;;;;;;62.10;34.70;;;9.20;99.90;;;;;;4996529;28;20289;-76
2022/11/12 10:02:51;;;;;;;66.63;36.57;;;9.30;99.90;;;;;;5014127;28;20046;-79
2022/11/12 10:05:44;;;;;;;65.00;34.03;;;9.30;99.90;;;;;;5014427;28;20307;-76
2022/11/12 10:08:16;;;;;;;70.57;32.93;;;9.40;99.90;;;;;;5014658;28;20673;-77
2022/11/12 10:10:57;;;;;;;68.63;34.23;;;9.30;99.90;;;;;;5013936;28;20293;-77
2022/11/12 10:13:45;;;;;;;63.87;31.23;;;9.30;99.90;;;;;;5013913;28;20312;-81
2022/11/12 10:19:12;;;;;;;;;;;9.30;99.90;;;;;;5013056;28;20781;-80
2022/11/12 10:22:01;;;;;;;48.13;30.53;;;9.30;99.90;;;;;;5013875;28;19921;-82
2022/11/12 10:24:33;;;;;;;58.20;31.43;;;9.30;99.90;;;;;;5012949;28;20777;-82
2022/11/12 10:27:01;;;;;;;66.10;33.30;;;9.30;99.90;;;;;;5013931;28;20355;-82
2022/11/12 10:29:41;;;;;;;53.37;31.97;;;9.30;99.90;;;;;;5013551;28;20735;-80
2022/11/12 10:32:14;;;;;;;54.63;34.30;;;9.30;99.90;;;;;;5014680;28;20281;-81
2022/11/12 10:34:40;;;;;;;60.10;34.17;;;9.30;99.90;;;;;;5013878;28;20342;-80
2022/11/12 10:37:21;;;;;;;63.47;35.77;;;9.40;99.90;;;;;;5012735;28;20777;-83
2022/11/12 10:39:47;;;;;;;60.50;35.47;;;9.40;99.90;;;;;;5015697;28;20049;-81
2022/11/12 10:42:15;;;;;;;61.63;34.63;;;9.40;99.90;;;;;;5018329;28;20363;-85
2022/11/12 10:44:42;;;;;;;47.93;32.10;;;9.40;99.90;;;;;;5016717;28;20128;-88
2022/11/12 10:47:29;;;;;;;58.27;35.23;;;9.40;99.90;;;;;;5016699;28;20289;-81
2022/11/12 10:50:07;;;;;;;57.40;36.00;;;9.40;99.90;;;;;;5016600;28;20296;-81
2022/11/12 10:52:34;;;;;;;55.80;34.73;;;9.40;99.90;;;;;;5017811;28;20293;-78
2022/11/12 10:55:33;;;;;;;60.00;34.73;;;9.50;99.90;;;;;;5016763;28;20297;-79
2022/11/12 10:58:08;;;;;;;55.47;33.37;;;9.50;99.90;;;;;;5015846;28;20308;-74
2022/11/12 11:00:35;;;;;;;53.95;31.92;;;9.50;99.90;;;;;;5017188;28;20292;-77
2022/11/12 11:03:15;;;;;;;58.13;33.90;;;9.50;99.90;;;;;;5016401;28;20099;-77
2022/11/12 11:05:46;;;;;;;54.87;33.43;;;9.40;99.90;;;;;;5017182;28;20380;-75
2022/11/12 11:08:12;;;;;;;60.07;35.87;;;9.50;99.90;;;;;;5016348;28;20641;-77
2022/11/12 11:10:38;;;;;;;54.60;36.23;;;9.50;99.90;;;;;;5017169;28;20284;-77
2022/11/12 11:13:26;;;;;;;62.20;34.40;;;9.40;99.90;;;;;;4999487;28;20050;-76
2022/11/12 11:16:04;;;;;;;52.47;35.03;;;9.50;99.90;;;;;;5017665;28;20057;-80
2022/11/12 11:18:33;;;;;;;48.13;33.13;;;9.40;99.90;;;;;;5016536;28;20309;-79
2022/11/12 11:21:08;;;;;;;49.93;35.47;;;9.40;99.90;;;;;;5016836;28;20285;-79
2022/11/12 11:23:46;;;;;;;50.33;34.72;;;9.40;99.90;;;;;;5016586;28;20296;-81
2022/11/12 11:26:26;;;;;;;48.30;33.17;;;9.50;99.90;;;;;;4999703;28;20089;-81
2022/11/12 11:29:26;;;;;;;48.93;34.27;;;9.50;99.90;;;;;;5016018;28;20297;-81
2022/11/12 11:32:16;;;;;;;48.97;34.13;;;9.50;99.90;;;;;;5016472;28;20325;-75
2022/11/12 11:34:46;;;;;;;52.77;35.20;;;9.60;99.90;;;;;;5017457;28;20273;-76
2022/11/12 11:37:28;;;;;;;54.43;35.90;;;9.60;99.90;;;;;;5015809;28;20304;-75
2022/11/12 11:40:14;;;;;;;49.03;33.73;;;9.70;99.90;;;;;;5017086;28;20305;-75
2022/11/12 11:43:07;;;;;;;51.80;35.27;;;9.70;99.90;;;;;;5017045;28;20351;-76
2022/11/12 11:46:00;;;;;;;53.40;36.57;;;9.70;99.90;;;;;;5016183;28;20296;-76
2022/11/12 11:48:40;;;;;;;49.67;33.50;;;9.80;99.90;;;;;;5016945;28;20454;-82
2022/11/12 11:51:57;;;;;;;43.03;32.50;;;9.80;99.90;;;;;;5016301;28;20284;-76
2022/11/12 11:55:08;;;;;;;46.90;33.92;;;9.80;99.90;;;;;;5003604;28;20381;-75
2022/11/12 11:57:58;;;;;;;46.70;32.13;;;9.80;99.90;;;;;;5016242;28;20132;-75
2022/11/12 12:00:26;;;;;;;52.60;42.00;;;9.90;99.90;;;;;;5014992;28;20296;-75
2022/11/12 12:03:09;;;;;;;58.93;43.07;;;10.00;99.90;;;;;;5016313;28;20277;-74
2022/11/12 12:05:43;;;;;;;38.70;29.73;;;9.90;99.90;;;;;;5016076;28;20285;-75
2022/11/12 12:08:47;;;;;;;38.70;30.57;;;9.90;99.90;;;;;;5015906;28;20292;-75
2022/11/12 12:11:39;;;;;;;47.20;32.67;;;9.90;99.90;;;;;;5013287;28;20333;-79
2022/11/12 12:14:33;;;;;;;38.30;30.03;;;10.00;99.90;;;;;;5015837;28;20372;-78
2022/11/12 12:17:18;;;;;;;41.20;31.13;;;10.00;99.90;;;;;;5011028;28;20303;-78
2022/11/12 12:20:16;;;;;;;33.50;28.83;;;10.00;99.90;;;;;;5016038;28;20361;-76
2022/11/12 12:22:47;;;;;;;34.20;27.47;;;10.00;99.90;;;;;;5015290;28;20053;-79
2022/11/12 12:25:35;;;;;;;36.80;29.87;;;10.00;99.90;;;;;;5014834;28;20297;-76
2022/11/12 12:28:14;;;;;;;39.00;31.93;;;10.00;99.90;;;;;;5015702;28;20737;-82
2022/11/12 12:30:46;;;;;;;38.17;32.03;;;9.90;99.90;;;;;;5015789;28;20285;-77
2022/11/12 12:33:57;;;;;;;31.93;27.40;;;10.00;99.90;;;;;;5015487;28;20273;-75
2022/11/12 12:36:33;;;;;;;37.53;29.00;;;10.00;99.90;;;;;;5012995;28;20304;-77
2022/11/12 12:39:21;;;;;;;30.37;26.17;;;10.00;99.90;;;;;;5015368;28;20296;-73
2022/11/12 12:42:04;;;;;;;34.07;26.23;;;9.90;99.90;;;;;;5014968;28;20342;-72
2022/11/12 12:47:25;;;;;;;31.03;26.30;;;9.90;99.90;;;;;;5014659;28;20293;-75
2022/11/12 12:49:51;;;;;;;29.83;25.80;;;9.90;99.90;;;;;;5015379;28;20367;-73
2022/11/12 12:52:17;;;;;;;30.73;25.20;;;9.90;99.90;;;;;;5015018;28;20674;-72
2022/11/12 12:54:52;;;;;;;30.30;26.43;;;9.90;99.90;;;;;;5030757;28;20373;-76
2022/11/12 12:57:38;;;;;;;29.23;26.05;;;9.90;99.90;;;;;;5013916;28;20054;-72
2022/11/12 13:00:45;;;;;;;53.90;45.60;;;9.90;99.90;;;;;;5014010;28;20062;-74
2022/11/12 13:03:11;;;;;;;33.77;28.33;;;9.90;99.90;;;;;;5015123;28;20276;-72
2022/11/12 13:05:39;;;;;;;32.80;28.40;;;9.80;99.90;;;;;;5015060;28;20771;-78
2022/11/12 13:08:11;;;;;;;33.97;29.13;;;9.90;99.90;;;;;;5015036;28;20042;-80
2022/11/12 13:10:40;;;;;;;31.73;28.17;;;9.80;99.90;;;;;;5015860;28;20273;-77
2022/11/12 13:13:24;;;;;;;33.33;27.27;;;9.80;99.90;;;;;;5013689;28;20380;-77
2022/11/12 13:15:55;;;;;;;32.13;26.73;;;9.80;99.90;;;;;;5014865;28;20277;-74
2022/11/12 13:18:39;;;;;;;30.83;26.67;;;9.80;99.90;;;;;;5014679;28;20870;-75
2022/11/12 13:21:08;;;;;;;36.87;29.67;;;9.80;99.90;;;;;;5014740;28;20375;-74